Time;durP1;ratioP1;P1;durP2;ratioP2;P2;SDS_P1;SDS_P2;PMS_P1;PMS_P2;Temp;Humidity;BMP_temperature;BMP_pressure;BME280_temperature;BME280_humidity;BME280_pressure;Samples;Min_cycle;Max_cycle;Signal;HPM_P1;HPM_P2
2022/08/29 00:03:03;;;;;;;7.78;5.78;;;;;;;20.99;100.00;100203.00;5537883;32;33085;-68
2022/08/29 00:06:10;;;;;;;7.62;6.32;;;;;;;20.86;100.00;100196.03;5551608;32;34218;-68
2022/08/29 00:09:13;;;;;;;8.10;6.45;;;;;;;20.83;100.00;100197.31;5551789;32;34293;-67
2022/08/29 00:12:18;;;;;;;7.62;6.32;;;;;;;20.78;100.00;100199.06;5537820;32;32719;-67
2022/08/29 00:15:21;;;;;;;10.15;6.45;;;;;;;20.77;100.00;100205.50;5551561;32;35507;-68
2022/08/29 00:18:24;;;;;;;9.38;6.60;;;;;;;20.68;100.00;100209.66;5525010;32;33037;-68
2022/08/29 00:21:27;;;;;;;8.88;6.75;;;;;;;20.56;100.00;100204.28;5551448;32;35456;-67
2022/08/29 00:24:30;;;;;;;8.45;6.50;;;;;;;20.51;100.00;100206.06;5551506;32;34457;-68
2022/08/29 00:27:33;;;;;;;7.65;6.37;;;;;;;20.48;100.00;100214.63;5551435;32;34539;-68
2022/08/29 00:30:37;;;;;;;9.02;7.00;;;;;;;20.45;100.00;100218.59;5551300;32;34806;-69
2022/08/29 00:33:39;;;;;;;9.05;6.18;;;;;;;20.38;100.00;100217.91;5551340;32;34331;-67
2022/08/29 00:36:42;;;;;;;9.65;6.65;;;;;;;20.38;100.00;100217.91;5551246;32;34153;-66
2022/08/29 00:39:50;;;;;;;7.15;5.80;;;;;;;20.35;100.00;100218.38;5551148;32;34453;-67
2022/08/29 00:42:53;;;;;;;8.77;6.30;;;;;;;20.31;100.00;100220.72;5551284;32;34531;-67
2022/08/29 00:46:01;;;;;;;10.05;6.93;;;;;;;20.31;100.00;100217.19;5551052;32;35481;-68
2022/08/29 00:49:27;;;;;;;9.60;6.37;;;;;;;20.30;100.00;100220.91;5551495;32;34155;-68
2022/08/29 00:52:38;;;;;;;9.48;6.40;;;;;;;20.29;100.00;100224.66;5529693;32;34184;-66
2022/08/29 00:55:44;;;;;;;10.68;6.25;;;;;;;20.32;100.00;100225.06;5537464;32;32728;-67
2022/08/29 00:59:01;;;;;;;8.13;6.45;;;;;;;20.33;100.00;100217.81;5550992;32;34248;-68
2022/08/29 01:02:05;;;;;;;7.85;5.93;;;;;;;20.19;100.00;100225.25;5551113;32;34297;-67
2022/08/29 01:05:11;;;;;;;7.45;5.78;;;;;;;20.19;100.00;100237.88;5524496;32;32875;-68
2022/08/29 01:08:14;;;;;;;8.40;6.28;;;;;;;20.16;100.00;100232.97;5537518;32;34191;-68
2022/08/29 01:14:49;;;;;;;7.35;6.00;;;;;;;20.15;100.00;100231.34;5550952;32;34336;-68
2022/08/29 01:17:53;;;;;;;7.40;5.70;;;;;;;20.07;100.00;100231.69;5550842;32;34845;-68
2022/08/29 01:21:18;;;;;;;7.00;5.85;;;;;;;20.14;100.00;100243.97;5551004;32;34209;-69
2022/08/29 01:24:41;;;;;;;6.32;5.40;;;;;;;20.06;100.00;100240.81;5551250;32;34935;-68
2022/08/29 01:27:49;;;;;;;6.15;5.22;;;;;;;20.04;100.00;100238.38;5537410;32;34575;-69
2022/08/29 01:31:09;;;;;;;5.95;5.35;;;;;;;20.06;100.00;100244.34;5550791;32;34229;-68
2022/08/29 01:34:14;;;;;;;8.10;4.93;;;;;;;20.11;100.00;100243.63;5550775;32;34943;-67
2022/08/29 01:37:18;;;;;;;6.57;5.18;;;;;;;20.02;100.00;100235.09;5550831;32;35024;-68
2022/08/29 01:40:27;;;;;;;6.25;5.18;;;;;;;19.91;100.00;100247.47;5550980;32;34761;-68
2022/08/29 01:43:30;;;;;;;9.68;5.80;;;;;;;19.87;100.00;100250.87;5524644;32;33524;-69
2022/08/29 01:46:33;;;;;;;5.87;5.10;;;;;;;19.84;100.00;100254.03;5537144;32;33024;-68
2022/08/29 01:49:37;;;;;;;5.78;5.05;;;;;;;19.81;100.00;100259.84;5550667;32;34243;-66
2022/08/29 01:52:42;;;;;;;7.47;5.50;;;;;;;19.80;100.00;100250.16;5551012;32;34174;-68
2022/08/29 01:55:45;;;;;;;8.25;5.57;;;;;;;19.76;100.00;100246.25;5550507;32;34243;-67
2022/08/29 01:58:50;;;;;;;7.37;5.45;;;;;;;19.72;100.00;100247.78;5536559;32;34618;-68
2022/08/29 02:02:03;;;;;;;8.95;5.55;;;;;;;19.68;100.00;100247.44;5550574;32;34307;-67
2022/08/29 02:05:07;;;;;;;6.90;5.95;;;;;;;19.67;100.00;100240.41;5550936;32;34267;-68
2022/08/29 02:08:09;;;;;;;6.22;5.55;;;;;;;19.60;100.00;100239.69;5550610;32;34191;-67
2022/08/29 02:11:14;;;;;;;7.00;6.05;;;;;;;19.67;100.00;100226.94;5550486;32;34922;-68
2022/08/29 02:14:17;;;;;;;7.68;6.00;;;;;;;19.61;100.00;100243.19;5550722;32;34258;-68
2022/08/29 02:17:22;;;;;;;7.78;5.68;;;;;;;19.55;100.00;100239.56;5550489;32;34811;-66
2022/08/29 02:20:25;;;;;;;8.63;6.28;;;;;;;19.53;100.00;100257.78;5550470;32;34214;-67
2022/08/29 02:23:28;;;;;;;9.57;6.10;;;;;;;19.46;100.00;100249.81;5536817;32;34307;-68
2022/08/29 02:26:33;;;;;;;6.47;5.78;;;;;;;19.40;100.00;100242.62;5550435;32;34176;-68
2022/08/29 02:29:36;;;;;;;7.97;5.57;;;;;;;19.43;100.00;100244.03;5550369;32;34525;-68
2022/08/29 02:32:40;;;;;;;7.97;5.90;;;;;;;19.33;100.00;100236.53;5550381;32;34311;-66
2022/08/29 02:35:44;;;;;;;8.10;6.28;;;;;;;19.28;100.00;100239.06;5535998;32;33068;-70
2022/08/29 02:38:48;;;;;;;7.32;6.05;;;;;;;19.27;100.00;100231.22;5536601;32;34294;-67
2022/08/29 02:41:51;;;;;;;7.43;6.53;;;;;;;19.29;100.00;100234.50;5550157;32;34189;-67
2022/08/29 02:44:53;;;;;;;8.15;6.60;;;;;;;19.25;100.00;100222.56;5550421;32;34230;-66
2022/08/29 02:47:57;;;;;;;7.93;6.70;;;;;;;19.22;100.00;100213.06;5550163;32;34158;-69
2022/08/29 02:50:59;;;;;;;7.82;6.68;;;;;;;19.21;100.00;100216.84;5536623;32;34643;-66
2022/08/29 02:54:03;;;;;;;7.75;6.95;;;;;;;19.16;100.00;100214.00;5536518;32;33494;-68
2022/08/29 02:57:05;;;;;;;10.15;7.22;;;;;;;19.17;100.00;100221.00;5550148;32;34131;-67
2022/08/29 03:00:12;;;;;;;8.68;7.32;;;;;;;19.15;100.00;100227.69;5550341;32;34805;-68
2022/08/29 03:03:14;;;;;;;8.20;7.30;;;;;;;19.08;100.00;100225.06;5549899;32;34108;-68
2022/08/29 03:06:19;;;;;;;9.60;7.07;;;;;;;19.04;100.00;100232.78;5549761;32;34259;-68
2022/08/29 03:09:21;;;;;;;8.27;7.30;;;;;;;19.05;100.00;100231.72;5549719;32;34668;-68
2022/08/29 03:12:24;;;;;;;9.80;7.82;;;;;;;19.09;100.00;100235.59;5549716;32;34635;-68
2022/08/29 03:15:29;;;;;;;8.57;7.45;;;;;;;19.07;100.00;100236.87;5549997;32;34808;-69
2022/08/29 03:18:32;;;;;;;8.77;7.30;;;;;;;19.05;100.00;100239.78;5549660;32;34526;-69
2022/08/29 03:21:35;;;;;;;9.30;7.50;;;;;;;19.04;100.00;100243.53;5549596;32;34259;-69
2022/08/29 03:24:38;;;;;;;8.85;7.95;;;;;;;18.91;100.00;100248.25;5549572;32;34890;-68
2022/08/29 03:27:40;;;;;;;11.60;8.02;;;;;;;18.92;100.00;100247.22;5549459;32;34157;-69
2022/08/29 03:30:43;;;;;;;10.77;8.20;;;;;;;18.83;100.00;100251.25;5549355;32;34173;-69
2022/08/29 03:33:46;;;;;;;8.77;7.78;;;;;;;18.79;100.00;100250.84;5535543;32;32582;-69
2022/08/29 03:36:49;;;;;;;10.48;8.50;;;;;;;18.79;100.00;100255.41;5549319;32;34245;-69
2022/08/29 03:39:53;;;;;;;10.50;8.70;;;;;;;18.79;100.00;100268.84;5549042;32;34327;-69
2022/08/29 03:42:56;;;;;;;12.32;7.93;;;;;;;18.77;100.00;100265.56;5549206;32;34329;-69
2022/08/29 03:45:59;;;;;;;11.00;8.90;;;;;;;18.88;100.00;100267.53;5549193;32;34686;-69
2022/08/29 03:49:02;;;;;;;13.02;8.98;;;;;;;18.77;100.00;100271.78;5549178;32;34825;-70
2022/08/29 03:52:08;;;;;;;11.73;9.20;;;;;;;18.76;100.00;100269.31;5535538;32;34971;-70
2022/08/29 03:55:12;;;;;;;9.77;8.38;;;;;;;18.74;100.00;100282.13;5535883;32;34188;-70
2022/08/29 03:58:14;;;;;;;12.93;9.13;;;;;;;18.85;100.00;100286.78;5535371;32;34871;-69
2022/08/29 04:01:18;;;;;;;11.12;9.18;;;;;;;18.84;100.00;100296.69;5548916;32;34328;-68
2022/08/29 04:07:47;;;;;;;11.25;8.98;;;;;;;18.82;100.00;100293.44;5548611;32;34873;-68
2022/08/29 04:10:50;;;;;;;11.55;8.95;;;;;;;18.89;100.00;100291.47;5548593;32;34155;-69
2022/08/29 04:13:53;;;;;;;12.70;8.82;;;;;;;18.83;100.00;100299.62;5548586;32;34908;-69
2022/08/29 04:16:56;;;;;;;14.98;10.00;;;;;;;18.82;100.00;100297.97;5548642;32;34204;-70
2022/08/29 04:19:59;;;;;;;12.52;9.27;;;;;;;18.86;100.00;100300.00;5549446;32;34215;-70
2022/08/29 04:23:02;;;;;;;14.13;9.18;;;;;;;18.76;100.00;100302.38;5551262;32;34336;-69
2022/08/29 04:26:12;;;;;;;13.38;9.38;;;;;;;18.74;100.00;100307.12;5551354;32;34447;-70
2022/08/29 04:29:36;;;;;;;12.25;9.45;;;;;;;18.77;100.00;100311.25;5551348;32;34829;-69
2022/08/29 04:32:39;;;;;;;11.82;9.30;;;;;;;18.82;100.00;100303.34;5551342;32;34635;-68
2022/08/29 04:35:42;;;;;;;11.10;8.82;;;;;;;18.84;100.00;100312.81;5551282;32;34547;-69
2022/08/29 04:38:45;;;;;;;10.55;8.95;;;;;;;18.89;100.00;100317.53;5551250;32;34944;-69
2022/08/29 04:41:47;;;;;;;13.05;9.45;;;;;;;18.91;100.00;100327.03;5551216;32;34516;-67
2022/08/29 04:44:50;;;;;;;13.88;9.00;;;;;;;18.95;100.00;100322.84;5551287;32;34517;-68
2022/08/29 04:47:53;;;;;;;12.57;8.77;;;;;;;18.95;100.00;100322.84;5551078;32;34656;-69
2022/08/29 04:50:57;;;;;;;11.75;8.82;;;;;;;19.03;100.00;100329.78;5550911;32;34176;-68
2022/08/29 04:54:01;;;;;;;13.07;8.60;;;;;;;18.98;100.00;100325.06;5551171;32;34417;-69
2022/08/29 04:57:03;;;;;;;10.57;8.48;;;;;;;19.06;100.00;100326.66;5551295;32;34240;-69
2022/08/29 05:00:11;;;;;;;10.23;8.02;;;;;;;19.05;100.00;100323.16;5537282;32;33595;-70
2022/08/29 05:03:14;;;;;;;11.20;9.13;;;;;;;19.06;100.00;100329.34;5550937;32;35053;-68
2022/08/29 05:06:20;;;;;;;12.48;8.35;;;;;;;19.07;100.00;100331.78;5550686;32;34297;-68
2022/08/29 05:09:24;;;;;;;11.12;8.57;;;;;;;19.10;100.00;100335.91;5550788;32;34278;-69
2022/08/29 05:12:28;;;;;;;10.65;8.50;;;;;;;19.11;100.00;100332.19;5550732;32;34232;-69
2022/08/29 05:15:31;;;;;;;10.77;8.57;;;;;;;19.15;100.00;100325.31;5550460;32;34236;-70
2022/08/29 05:18:34;;;;;;;11.43;8.15;;;;;;;19.16;100.00;100334.22;5550747;32;34924;-70
2022/08/29 05:21:38;;;;;;;15.70;7.80;;;;;;;19.15;100.00;100335.25;5550547;32;34141;-69
2022/08/29 05:24:41;;;;;;;10.88;7.85;;;;;;;19.24;100.00;100333.88;5550649;32;34900;-69
2022/08/29 05:27:45;;;;;;;10.60;7.90;;;;;;;19.35;100.00;100339.34;5550718;32;34817;-69
2022/08/29 05:30:48;;;;;;;8.82;7.93;;;;;;;19.38;100.00;100338.87;5550100;32;34424;-69
2022/08/29 05:33:53;;;;;;;9.23;7.93;;;;;;;19.50;100.00;100333.59;5549921;32;34850;-68
2022/08/29 05:36:56;;;;;;;11.43;7.43;;;;;;;19.62;100.00;100334.47;5536807;32;34236;-69
2022/08/29 05:39:59;;;;;;;9.30;7.22;;;;;;;20.00;100.00;100344.88;5549875;32;34626;-69
2022/08/29 05:43:02;;;;;;;12.23;7.37;;;;;;;20.08;100.00;100349.16;5536504;32;33164;-69
2022/08/29 05:46:06;;;;;;;11.57;7.37;;;;;;;20.06;100.00;100345.84;5550201;32;34892;-68
2022/08/29 05:49:09;;;;;;;10.85;7.25;;;;;;;20.13;100.00;100342.03;5536673;32;33039;-70
2022/08/29 05:52:14;;;;;;;8.20;6.90;;;;;;;20.11;100.00;100349.50;5550267;32;34177;-69
2022/08/29 05:55:17;;;;;;;8.52;7.15;;;;;;;20.14;100.00;100350.94;5550027;32;34843;-70
2022/08/29 05:58:20;;;;;;;11.75;7.03;;;;;;;20.04;100.00;100347.97;5550100;32;34210;-69
2022/08/29 06:01:27;;;;;;;10.32;7.18;;;;;;;20.25;100.00;100348.25;5550293;32;34959;-70
2022/08/29 06:04:34;;;;;;;10.77;6.90;;;;;;;20.18;100.00;100349.41;5550130;32;34192;-69
2022/08/29 06:07:37;;;;;;;11.05;6.43;;;;;;;20.25;100.00;100348.25;5536559;32;32688;-70
2022/08/29 06:10:42;;;;;;;7.25;5.75;;;;;;;20.42;100.00;100347.59;5550538;32;34261;-70
2022/08/29 06:13:44;;;;;;;10.57;6.12;;;;;;;20.53;100.00;100352.97;5550321;32;34303;-68
2022/08/29 06:16:47;;;;;;;7.32;5.55;;;;;;;20.53;100.00;100358.38;5550553;32;34146;-69
2022/08/29 06:19:51;;;;;;;7.65;5.62;;;;;;;20.67;100.00;100359.78;5536919;32;32588;-68
2022/08/29 06:22:54;;;;;;;9.93;5.60;;;;;;;20.79;100.00;100367.88;5550585;32;34251;-69
2022/08/29 06:25:57;;;;;;;10.07;5.78;;;;;;;21.10;100.00;100367.53;5536420;32;33135;-70
2022/08/29 06:29:05;;;;;;;10.88;5.07;;;;;;;21.09;99.13;100368.56;5550276;32;34171;-68
2022/08/29 06:32:08;;;;;;;8.75;5.40;;;;;;;21.34;97.98;100386.41;5549998;32;34215;-70
2022/08/29 06:35:10;;;;;;;10.80;6.00;;;;;;;21.43;96.82;100383.09;5549789;32;34609;-71
2022/08/29 06:38:13;;;;;;;12.88;5.80;;;;;;;21.44;96.71;100387.44;5549721;32;34135;-70
2022/08/29 06:41:17;;;;;;;9.40;6.00;;;;;;;21.26;97.19;100384.88;5549512;32;34502;-69
2022/08/29 06:44:20;;;;;;;7.45;6.00;;;;;;;21.23;97.83;100386.19;5549457;32;35051;-70
2022/08/29 06:47:23;;;;;;;5.70;5.10;;;;;;;21.64;95.76;100395.91;5549234;32;35423;-68
2022/08/29 06:50:27;;;;;;;6.87;5.37;;;;;;;22.01;92.56;100393.72;5536305;32;33933;-68
2022/08/29 06:53:29;;;;;;;6.22;4.43;;;;;;;22.29;90.30;100397.44;5549554;32;35584;-70
2022/08/29 06:56:34;;;;;;;5.35;4.20;;;;;;;22.33;88.83;100396.69;5535820;32;33711;-71
2022/08/29 06:59:38;;;;;;;5.50;3.97;;;;;;;23.10;84.55;100399.56;5535501;32;33868;-69
2022/08/29 07:02:41;;;;;;;8.23;3.70;;;;;;;24.05;80.76;100407.25;5535350;32;34431;-68
2022/08/29 07:05:53;;;;;;;10.05;4.10;;;;;;;24.92;76.32;100404.25;5549192;32;34237;-69
2022/08/29 07:08:57;;;;;;;4.70;3.40;;;;;;;24.34;76.25;100401.59;5535476;32;32665;-70
2022/08/29 07:12:00;;;;;;;6.30;3.67;;;;;;;24.76;74.08;100410.63;5549119;32;34091;-70
2022/08/29 07:15:03;;;;;;;4.25;3.10;;;;;;;24.06;77.76;100413.50;5549127;32;34261;-68
2022/08/29 07:18:06;;;;;;;7.70;3.50;;;;;;;24.57;75.01;100410.22;5548942;32;35497;-68
2022/08/29 07:21:13;;;;;;;12.60;3.50;;;;;;;24.67;73.94;100410.28;5535441;32;34235;-67
2022/08/29 07:24:24;;;;;;;6.12;3.20;;;;;;;25.61;70.10;100416.87;5548974;32;34207;-68
2022/08/29 07:27:28;;;;;;;5.93;3.20;;;;;;;25.01;72.87;100413.56;5535387;32;34078;-69
2022/08/29 07:30:32;;;;;;;6.68;3.10;;;;;;;26.43;66.08;100414.13;5534875;32;33867;-68
2022/08/29 07:33:35;;;;;;;9.13;2.95;;;;;;;26.58;64.97;100418.72;5534984;32;33744;-69
2022/08/29 07:36:39;;;;;;;8.65;2.85;;;;;;;26.31;66.28;100418.97;5522625;32;33153;-68
2022/08/29 07:39:41;;;;;;;5.80;3.00;;;;;;;27.12;63.73;100422.50;5548492;32;34156;-68
2022/08/29 07:42:44;;;;;;;3.90;3.00;;;;;;;27.60;60.12;100423.75;5534679;32;33579;-70
2022/08/29 07:45:46;;;;;;;8.40;3.08;;;;;;;25.91;66.21;100419.69;5534767;32;32951;-68
2022/08/29 07:48:51;;;;;;;5.82;2.92;;;;;;;26.15;65.94;100422.72;5534747;32;32854;-70
2022/08/29 07:51:54;;;;;;;10.43;2.85;;;;;;;27.03;62.42;100426.06;5534908;32;33690;-68
2022/08/29 07:54:58;;;;;;;5.62;2.60;;;;;;;26.69;64.40;100432.06;5535407;32;33516;-69
2022/08/29 07:58:02;;;;;;;3.97;2.67;;;;;;;27.22;61.56;100427.09;5550769;32;34195;-69
2022/08/29 08:01:05;;;;;;;6.00;3.28;;;;;;;28.02;59.15;100436.91;5536957;32;33939;-67
2022/08/29 08:04:09;;;;;;;4.12;2.90;;;;;;;28.75;55.59;100439.72;5524858;32;32574;-69
2022/08/29 08:07:13;;;;;;;3.62;2.97;;;;;;;27.76;57.87;100435.41;5551574;32;34195;-69
2022/08/29 08:10:19;;;;;;;7.15;2.70;;;;;;;27.41;59.13;100430.88;5551119;32;34469;-69
2022/08/29 08:13:22;;;;;;;6.57;3.00;;;;;;;29.20;54.05;100432.16;5537798;32;34373;-69
2022/08/29 08:16:26;;;;;;;5.32;2.65;;;;;;;29.37;53.29;100435.28;5537419;32;33225;-69
2022/08/29 08:19:29;;;;;;;6.53;2.62;;;;;;;29.71;52.01;100443.34;5537017;32;32898;-69
2022/08/29 08:22:33;;;;;;;4.07;2.50;;;;;;;30.04;50.54;100433.37;5550977;32;34869;-70
2022/08/29 08:25:36;;;;;;;8.90;3.20;;;;;;;30.83;48.48;100437.91;5537184;32;33209;-70
2022/08/29 08:28:40;;;;;;;3.55;2.40;;;;;;;30.23;49.97;100440.47;5523734;32;32845;-69
2022/08/29 08:31:44;;;;;;;4.72;2.33;;;;;;;31.73;46.40;100448.25;5537276;32;33450;-70
2022/08/29 08:34:47;;;;;;;4.82;2.58;;;;;;;31.61;45.80;100436.19;5535778;32;33101;-70
2022/08/29 08:37:55;;;;;;;5.20;2.70;;;;;;;29.80;51.12;100436.13;5550985;32;34204;-70
2022/08/29 08:41:21;;;;;;;5.37;2.60;;;;;;;31.12;47.82;100434.13;5536860;32;32852;-70
2022/08/29 08:44:49;;;;;;;3.80;2.90;;;;;;;29.21;52.40;100429.16;5537054;32;32873;-70
2022/08/29 08:48:02;;;;;;;3.97;2.60;;;;;;;30.70;48.98;100438.66;5550614;32;34679;-71
2022/08/29 08:51:14;;;;;;;4.75;2.45;;;;;;;31.58;46.34;100425.81;5524533;32;33177;-69
2022/08/29 08:54:23;;;;;;;5.60;2.92;;;;;;;33.01;42.24;100436.75;5536642;32;32712;-70
2022/08/29 08:57:34;;;;;;;2.87;2.42;;;;;;;32.48;43.28;100450.44;5550671;32;34196;-69
2022/08/29 09:01:03;;;;;;;7.43;2.90;;;;;;;29.68;50.59;100435.72;5550223;32;34337;-69
2022/08/29 09:04:30;;;;;;;10.73;2.50;;;;;;;31.16;47.39;100435.94;5549987;32;35520;-69
2022/08/29 09:08:13;;;;;;;17.02;2.87;;;;;;;31.26;46.92;100438.50;5536662;32;34593;-69
2022/08/29 09:11:35;;;;;;;4.50;2.70;;;;;;;32.43;44.32;100441.50;5521185;32;34804;-69
2022/08/29 09:14:42;;;;;;;7.00;3.00;;;;;;;31.15;46.62;100441.72;5550078;32;35141;-70
2022/08/29 09:17:59;;;;;;;6.10;2.75;;;;;;;29.39;51.86;100427.59;5550218;32;34468;-70
2022/08/29 09:21:16;;;;;;;5.50;3.00;;;;;;;29.10;52.68;100427.63;5549675;32;34812;-69
2022/08/29 09:24:49;;;;;;;6.45;3.15;;;;;;;28.27;55.30;100416.84;5538895;32;34135;-68
2022/08/29 09:27:52;;;;;;;4.53;3.10;;;;;;;27.47;59.80;100420.78;5549478;32;34288;-69
2022/08/29 09:31:21;;;;;;;4.93;3.40;;;;;;;27.35;58.68;100423.81;5536284;32;34585;-70
2022/08/29 09:34:45;;;;;;;;;;;;;;;26.41;62.47;100418.19;5536477;32;32984;-68
2022/08/29 09:38:15;;;;;;;7.32;3.10;;;;;;;27.21;61.95;100425.47;5550251;32;34474;-69
2022/08/29 09:41:26;;;;;;;8.88;2.90;;;;;;;28.38;56.60;100423.03;5536909;32;33977;-69
2022/08/29 09:44:35;;;;;;;5.40;3.20;;;;;;;30.55;49.07;100430.69;5550966;32;33851;-69
2022/08/29 09:47:38;;;;;;;4.45;2.83;;;;;;;31.14;47.39;100423.66;5523792;32;33806;-69
2022/08/29 09:50:41;;;;;;;5.72;3.20;;;;;;;30.35;49.61;100420.88;5536005;32;34322;-70
2022/08/29 09:53:44;;;;;;;4.03;3.05;;;;;;;29.54;51.98;100424.69;5550551;32;34434;-70
2022/08/29 09:56:53;;;;;;;6.07;3.37;;;;;;;28.51;54.50;100422.41;5537045;32;33995;-70
2022/08/29 10:00:16;;;;;;;3.85;3.30;;;;;;;27.78;57.59;100426.94;5550053;32;34911;-69
2022/08/29 10:03:23;;;;;;;4.75;3.35;;;;;;;27.48;58.38;100417.78;5536840;32;32984;-71
2022/08/29 10:06:30;;;;;;;5.90;3.10;;;;;;;27.43;58.22;100416.97;5550195;32;34491;-69
2022/08/29 10:09:33;;;;;;;5.22;3.10;;;;;;;27.01;60.11;100420.91;5550294;32;35449;-69
2022/08/29 10:12:57;;;;;;;5.50;3.10;;;;;;;26.78;61.02;100424.97;5536416;32;34127;-69
2022/08/29 10:16:20;;;;;;;5.00;3.10;;;;;;;27.02;60.61;100427.97;5550351;32;34174;-69
2022/08/29 10:19:27;;;;;;;4.32;3.40;;;;;;;27.04;59.97;100420.34;5549579;32;34571;-69
2022/08/29 10:22:51;;;;;;;8.07;3.60;;;;;;;27.23;58.58;100423.31;5536708;32;32809;-71
2022/08/29 10:25:53;;;;;;;6.22;3.03;;;;;;;27.38;58.49;100423.25;5550239;32;34525;-68
2022/08/29 10:29:11;;;;;;;5.65;2.85;;;;;;;27.58;56.36;100427.84;5550118;32;34794;-70
2022/08/29 10:32:45;;;;;;;4.55;3.03;;;;;;;27.20;57.19;100432.84;5535921;32;32868;-70
2022/08/29 10:36:07;;;;;;;4.47;2.80;;;;;;;27.59;55.99;100427.56;5549855;32;34352;-70
2022/08/29 10:39:14;;;;;;;6.53;3.22;;;;;;;27.35;57.41;100428.47;5550190;32;34856;-69
2022/08/29 10:42:22;;;;;;;5.00;2.85;;;;;;;27.48;57.64;100428.69;5536259;32;33600;-70
2022/08/29 10:45:46;;;;;;;4.90;2.90;;;;;;;29.37;51.57;100427.91;5549769;32;34658;-69
2022/08/29 10:49:01;;;;;;;4.55;2.50;;;;;;;30.93;47.00;100428.69;5550334;32;35567;-69
2022/08/29 10:52:15;;;;;;;3.65;2.40;;;;;;;33.75;40.12;100423.13;5549997;32;34255;-70
2022/08/29 10:55:24;;;;;;;4.90;3.12;;;;;;;35.52;36.73;100428.28;5549605;32;34841;-70
2022/08/29 10:58:59;;;;;;;4.18;2.22;;;;;;;34.53;37.93;100424.00;5549877;32;34311;-70
2022/08/29 11:02:07;;;;;;;3.83;2.30;;;;;;;33.42;38.69;100417.22;5510602;32;32765;-71
2022/08/29 11:05:25;;;;;;;2.75;2.20;;;;;;;34.55;37.92;100416.22;5549860;32;34873;-70
2022/08/29 11:08:38;;;;;;;5.37;2.40;;;;;;;36.30;33.92;100413.97;5549738;32;34280;-71
2022/08/29 11:11:53;;;;;;;3.00;2.30;;;;;;;36.02;34.51;100408.94;5536114;32;33484;-67
2022/08/29 11:15:06;;;;;;;3.95;2.12;;;;;;;37.78;31.09;100404.41;5549341;32;34128;-72
2022/08/29 11:18:23;;;;;;;4.28;2.25;;;;;;;38.14;30.57;100406.31;5536071;32;34875;-71
2022/08/29 11:21:46;;;;;;;2.30;2.10;;;;;;;37.29;31.37;100396.13;5535940;32;32889;-70
2022/08/29 11:25:11;;;;;;;3.37;1.50;;;;;;;38.40;31.36;100391.97;5549525;32;35009;-71
2022/08/29 11:28:26;;;;;;;3.03;1.90;;;;;;;37.47;32.37;100388.41;5549534;32;34128;-70
2022/08/29 11:31:48;;;;;;;13.85;2.58;;;;;;;37.16;32.24;100391.75;5537384;32;33432;-72
2022/08/29 11:35:25;;;;;;;3.20;1.92;;;;;;;36.33;33.68;100400.28;5537852;32;33011;-71
2022/08/29 11:38:58;;;;;;;2.15;1.67;;;;;;;36.34;33.00;100393.59;5551552;32;34331;-70
2022/08/29 11:42:04;;;;;;;6.40;1.70;;;;;;;35.93;33.98;100388.88;5551641;32;34765;-71
2022/08/29 11:45:12;;;;;;;3.62;1.58;;;;;;;36.81;31.42;100385.81;5551684;32;34147;-70
2022/08/29 11:48:27;;;;;;;2.97;1.70;;;;;;;33.59;36.50;100373.25;5551642;32;34866;-70
2022/08/29 11:51:39;;;;;;;3.10;1.65;;;;;;;34.45;35.73;100378.00;5551542;32;35169;-70
2022/08/29 11:54:41;;;;;;;2.55;1.70;;;;;;;36.06;33.14;100379.53;5551538;32;34138;-70
2022/08/29 11:57:48;;;;;;;3.55;1.70;;;;;;;33.86;36.91;100380.44;5537724;32;32636;-70
2022/08/29 12:00:53;;;;;;;2.08;1.60;;;;;;;31.42;42.27;100381.41;5551770;32;34350;-71
2022/08/29 12:03:57;;;;;;;4.20;1.65;;;;;;;32.73;39.12;100377.56;5551203;32;35577;-70
2022/08/29 12:07:01;;;;;;;2.25;1.65;;;;;;;34.46;36.87;100377.69;5551052;32;34943;-66
2022/08/29 12:10:11;;;;;;;7.90;1.58;;;;;;;34.78;35.20;100373.56;5537863;32;32629;-71
2022/08/29 12:13:45;;;;;;;2.37;1.58;;;;;;;34.05;36.35;100372.66;5537461;32;34879;-71
2022/08/29 12:16:50;;;;;;;3.50;1.80;;;;;;;33.94;37.01;100365.84;5551078;32;34577;-69
2022/08/29 12:19:59;;;;;;;3.30;1.37;;;;;;;37.23;30.92;100361.53;5551284;32;35490;-70
2022/08/29 12:23:11;;;;;;;3.33;1.60;;;;;;;39.23;28.13;100369.63;5537763;32;34819;-71
2022/08/29 12:26:41;;;;;;;2.62;1.55;;;;;;;40.22;26.20;100368.31;5551324;32;34890;-72
2022/08/29 12:29:45;;;;;;;4.10;1.50;;;;;;;40.97;24.71;100365.72;5542602;32;34016;-71
2022/08/29 12:33:11;;;;;;;1.85;1.45;;;;;;;38.71;28.16;100358.81;5551237;32;34785;-71
2022/08/29 12:36:38;;;;;;;1.95;1.60;;;;;;;34.96;33.71;100348.69;5537258;32;35016;-70
2022/08/29 12:40:22;;;;;;;3.37;1.70;;;;;;;32.48;39.08;100345.28;5551279;32;34579;-68
2022/08/29 12:43:34;;;;;;;2.58;1.52;;;;;;;30.41;43.77;100331.25;5537668;32;32592;-70
2022/08/29 12:46:41;;;;;;;2.80;1.70;;;;;;;29.23;46.46;100325.84;5550674;32;34629;-70
2022/08/29 12:49:51;;;;;;;3.33;1.52;;;;;;;30.69;43.53;100322.03;5550623;32;35058;-70
2022/08/29 12:53:24;;;;;;;2.22;1.48;;;;;;;35.71;33.55;100326.53;5536604;32;33020;-68
2022/08/29 12:56:28;;;;;;;6.00;1.50;;;;;;;36.22;31.19;100330.00;5551391;32;34314;-71
2022/08/29 12:59:30;;;;;;;11.25;1.50;;;;;;;38.56;28.91;100326.31;5536240;32;32529;-71
2022/08/29 13:02:36;;;;;;;3.60;1.60;;;;;;;40.85;25.23;100324.19;5537271;32;33908;-71
2022/08/29 13:05:39;;;;;;;2.40;1.30;;;;;;;42.68;23.17;100324.22;5551005;32;34345;-69
2022/08/29 13:08:47;;;;;;;2.55;1.40;;;;;;;42.22;23.06;100318.94;5550910;32;34866;-71
2022/08/29 13:12:08;;;;;;;5.07;1.30;;;;;;;43.12;21.82;100321.41;5551073;32;34359;-71
2022/08/29 13:15:28;;;;;;;5.65;1.30;;;;;;;42.33;22.96;100308.72;5550722;32;34176;-71
2022/08/29 13:18:34;;;;;;;3.97;1.30;;;;;;;40.04;25.46;100312.31;5537178;32;33209;-71
2022/08/29 13:22:02;;;;;;;2.60;1.20;;;;;;;41.51;23.81;100306.94;5550912;32;34088;-70
2022/08/29 13:25:05;;;;;;;3.37;1.40;;;;;;;40.83;24.24;100307.06;5550818;32;34330;-71
2022/08/29 13:28:14;;;;;;;6.25;1.40;;;;;;;42.23;22.86;100301.03;5537078;32;33060;-70
2022/08/29 13:31:17;;;;;;;3.20;1.40;;;;;;;42.16;23.02;100300.16;5536900;32;32834;-72
2022/08/29 13:34:21;;;;;;;1.67;1.37;;;;;;;43.34;21.87;100295.19;5536094;32;33980;-70
2022/08/29 13:37:35;;;;;;;2.15;1.42;;;;;;;39.70;25.59;100285.44;5550237;32;34141;-71
2022/08/29 13:40:46;;;;;;;1.80;1.40;;;;;;;40.25;24.82;100293.31;5550246;32;35340;-70
2022/08/29 13:43:52;;;;;;;1.62;1.33;;;;;;;39.67;25.57;100288.94;5536360;32;33682;-70
2022/08/29 13:46:58;;;;;;;5.60;1.40;;;;;;;37.44;28.75;100289.44;5550472;32;34220;-71
2022/08/29 13:50:07;;;;;;;6.10;1.40;;;;;;;36.54;30.62;100284.97;5536759;32;32752;-70
2022/08/29 13:53:12;;;;;;;4.85;1.33;;;;;;;36.08;31.56;100286.09;5535848;32;34952;-71
2022/08/29 13:56:22;;;;;;;2.65;1.40;;;;;;;35.64;32.13;100293.09;5523718;32;32970;-68
2022/08/29 13:59:30;;;;;;;2.35;1.58;;;;;;;36.10;31.15;100280.22;5550117;32;34613;-70
2022/08/29 14:02:38;;;;;;;6.20;1.40;;;;;;;34.56;34.14;100282.03;5549717;32;34590;-68
2022/08/29 14:05:48;;;;;;;2.55;1.50;;;;;;;32.04;38.31;100277.44;5549806;32;34548;-70
2022/08/29 14:08:52;;;;;;;3.70;1.52;;;;;;;30.40;42.22;100281.19;5549797;32;34305;-70
2022/08/29 14:11:55;;;;;;;3.40;1.48;;;;;;;29.91;43.29;100270.81;5536252;32;34806;-68
2022/08/29 14:15:00;;;;;;;3.10;1.55;;;;;;;29.40;44.46;100275.38;5536287;32;32863;-69
2022/08/29 14:18:11;;;;;;;2.50;1.58;;;;;;;29.46;44.54;100280.47;5549858;32;34919;-69
2022/08/29 14:21:16;;;;;;;2.28;1.50;;;;;;;29.91;43.69;100276.28;5549761;32;34981;-70
2022/08/29 14:24:19;;;;;;;5.18;1.55;;;;;;;30.29;43.40;100279.72;5522893;32;34526;-70
2022/08/29 14:27:23;;;;;;;1.70;1.60;;;;;;;30.04;44.22;100266.47;5535518;32;33677;-70
2022/08/29 14:30:33;;;;;;;2.95;1.77;;;;;;;29.77;44.63;100273.44;5535994;32;34501;-69
2022/08/29 14:33:39;;;;;;;7.30;2.05;;;;;;;29.75;44.29;100275.66;5535812;32;33371;-70
2022/08/29 14:36:42;;;;;;;1.83;1.60;;;;;;;30.19;44.79;100264.31;5549465;32;34850;-69